sensor_id;sensor_type;location;lat;lon;timestamp;P1;durP1;ratioP1;P2;durP2;ratioP2
18435;SDS011;9346;52.006;4.720;2024-02-16T00:00:23;4.27;;;2.10;;
18435;SDS011;9346;52.006;4.720;2024-02-16T00:02:51;2.17;;;1.73;;
18435;SDS011;9346;52.006;4.720;2024-02-16T00:05:18;5.53;;;2.30;;
18435;SDS011;9346;52.006;4.720;2024-02-16T00:07:45;3.00;;;1.80;;
18435;SDS011;9346;52.006;4.720;2024-02-16T00:10:12;3.20;;;2.27;;
18435;SDS011;9346;52.006;4.720;2024-02-16T00:12:38;4.37;;;2.47;;
18435;SDS011;9346;52.006;4.720;2024-02-16T00:15:07;3.07;;;2.20;;
18435;SDS011;9346;52.006;4.720;2024-02-16T00:17:35;5.53;;;2.60;;
18435;SDS011;9346;52.006;4.720;2024-02-16T00:20:05;4.03;;;2.63;;
18435;SDS011;9346;52.006;4.720;2024-02-16T00:22:33;3.97;;;2.43;;
18435;SDS011;9346;52.006;4.720;2024-02-16T00:25:00;2.80;;;2.40;;
18435;SDS011;9346;52.006;4.720;2024-02-16T00:27:28;5.40;;;2.67;;
18435;SDS011;9346;52.006;4.720;2024-02-16T00:29:55;3.80;;;2.47;;
18435;SDS011;9346;52.006;4.720;2024-02-16T00:32:22;3.63;;;2.60;;
18435;SDS011;9346;52.006;4.720;2024-02-16T00:34:54;4.53;;;2.70;;
18435;SDS011;9346;52.006;4.720;2024-02-16T00:37:22;4.07;;;2.37;;
18435;SDS011;9346;52.006;4.720;2024-02-16T00:39:49;3.33;;;2.10;;
18435;SDS011;9346;52.006;4.720;2024-02-16T00:42:17;4.20;;;2.57;;
18435;SDS011;9346;52.006;4.720;2024-02-16T00:44:44;2.40;;;2.03;;
18435;SDS011;9346;52.006;4.720;2024-02-16T00:47:11;5.50;;;2.50;;
18435;SDS011;9346;52.006;4.720;2024-02-16T00:49:39;2.70;;;2.10;;
18435;SDS011;9346;52.006;4.720;2024-02-16T00:52:06;6.17;;;2.60;;
18435;SDS011;9346;52.006;4.720;2024-02-16T00:54:34;3.93;;;2.67;;
18435;SDS011;9346;52.006;4.720;2024-02-16T00:57:02;5.20;;;3.00;;
18435;SDS011;9346;52.006;4.720;2024-02-16T00:59:29;3.13;;;2.27;;
18435;SDS011;9346;52.006;4.720;2024-02-16T01:01:56;4.23;;;2.80;;
18435;SDS011;9346;52.006;4.720;2024-02-16T01:04:23;3.00;;;2.03;;
18435;SDS011;9346;52.006;4.720;2024-02-16T01:06:50;3.03;;;2.30;;
18435;SDS011;9346;52.006;4.720;2024-02-16T01:09:16;3.50;;;2.33;;
18435;SDS011;9346;52.006;4.720;2024-02-16T01:11:45;3.53;;;2.70;;
18435;SDS011;9346;52.006;4.720;2024-02-16T01:14:12;6.47;;;2.63;;
18435;SDS011;9346;52.006;4.720;2024-02-16T01:16:39;4.33;;;2.47;;
18435;SDS011;9346;52.006;4.720;2024-02-16T01:19:06;4.47;;;2.40;;
18435;SDS011;9346;52.006;4.720;2024-02-16T01:21:32;3.73;;;2.73;;
18435;SDS011;9346;52.006;4.720;2024-02-16T01:23:59;3.63;;;2.47;;
18435;SDS011;9346;52.006;4.720;2024-02-16T01:26:26;3.30;;;2.63;;
18435;SDS011;9346;52.006;4.720;2024-02-16T01:28:54;2.87;;;2.23;;
18435;SDS011;9346;52.006;4.720;2024-02-16T01:31:23;5.20;;;2.93;;
18435;SDS011;9346;52.006;4.720;2024-02-16T01:33:50;4.00;;;2.60;;
18435;SDS011;9346;52.006;4.720;2024-02-16T01:36:17;4.80;;;2.63;;
18435;SDS011;9346;52.006;4.720;2024-02-16T01:38:45;8.10;;;2.87;;
18435;SDS011;9346;52.006;4.720;2024-02-16T01:41:12;5.73;;;2.80;;
18435;SDS011;9346;52.006;4.720;2024-02-16T01:43:40;6.07;;;2.83;;
18435;SDS011;9346;52.006;4.720;2024-02-16T01:46:08;7.13;;;2.47;;
18435;SDS011;9346;52.006;4.720;2024-02-16T01:48:35;2.60;;;2.40;;
18435;SDS011;9346;52.006;4.720;2024-02-16T01:51:04;3.07;;;2.57;;
18435;SDS011;9346;52.006;4.720;2024-02-16T01:53:33;4.70;;;2.77;;
18435;SDS011;9346;52.006;4.720;2024-02-16T01:55:59;5.00;;;2.97;;
18435;SDS011;9346;52.006;4.720;2024-02-16T01:58:26;3.30;;;2.63;;
18435;SDS011;9346;52.006;4.720;2024-02-16T02:00:53;3.03;;;2.60;;
18435;SDS011;9346;52.006;4.720;2024-02-16T02:03:21;3.87;;;2.60;;
18435;SDS011;9346;52.006;4.720;2024-02-16T02:05:48;4.30;;;2.73;;
18435;SDS011;9346;52.006;4.720;2024-02-16T02:08:16;3.97;;;2.67;;
18435;SDS011;9346;52.006;4.720;2024-02-16T02:10:42;3.70;;;2.77;;
18435;SDS011;9346;52.006;4.720;2024-02-16T02:13:09;4.07;;;2.60;;
18435;SDS011;9346;52.006;4.720;2024-02-16T02:15:36;4.57;;;2.97;;
18435;SDS011;9346;52.006;4.720;2024-02-16T02:18:03;4.93;;;3.07;;
18435;SDS011;9346;52.006;4.720;2024-02-16T02:20:31;5.13;;;2.60;;
18435;SDS011;9346;52.006;4.720;2024-02-16T02:23:00;3.13;;;2.83;;
18435;SDS011;9346;52.006;4.720;2024-02-16T02:25:29;4.20;;;2.80;;
18435;SDS011;9346;52.006;4.720;2024-02-16T02:27:55;5.03;;;2.53;;
18435;SDS011;9346;52.006;4.720;2024-02-16T02:30:22;6.67;;;3.13;;
18435;SDS011;9346;52.006;4.720;2024-02-16T02:32:49;7.50;;;3.00;;
18435;SDS011;9346;52.006;4.720;2024-02-16T02:35:16;4.57;;;3.07;;
18435;SDS011;9346;52.006;4.720;2024-02-16T02:37:44;3.87;;;2.80;;
18435;SDS011;9346;52.006;4.720;2024-02-16T02:40:13;3.43;;;2.80;;
18435;SDS011;9346;52.006;4.720;2024-02-16T02:42:40;3.33;;;2.67;;
18435;SDS011;9346;52.006;4.720;2024-02-16T02:45:07;4.00;;;2.70;;
18435;SDS011;9346;52.006;4.720;2024-02-16T02:47:34;6.23;;;3.03;;
18435;SDS011;9346;52.006;4.720;2024-02-16T02:50:01;4.60;;;2.97;;
18435;SDS011;9346;52.006;4.720;2024-02-16T02:52:29;3.90;;;2.60;;
18435;SDS011;9346;52.006;4.720;2024-02-16T02:54:56;4.23;;;3.00;;
18435;SDS011;9346;52.006;4.720;2024-02-16T02:57:25;4.20;;;2.70;;
18435;SDS011;9346;52.006;4.720;2024-02-16T02:59:52;3.73;;;2.70;;
18435;SDS011;9346;52.006;4.720;2024-02-16T03:02:18;4.87;;;3.03;;
18435;SDS011;9346;52.006;4.720;2024-02-16T03:04:45;4.40;;;3.00;;
18435;SDS011;9346;52.006;4.720;2024-02-16T03:07:12;6.13;;;2.60;;
18435;SDS011;9346;52.006;4.720;2024-02-16T03:09:39;5.77;;;3.17;;
18435;SDS011;9346;52.006;4.720;2024-02-16T03:12:08;4.20;;;2.90;;
18435;SDS011;9346;52.006;4.720;2024-02-16T03:14:37;7.10;;;3.00;;
18435;SDS011;9346;52.006;4.720;2024-02-16T03:17:03;4.67;;;3.10;;
18435;SDS011;9346;52.006;4.720;2024-02-16T03:19:30;4.93;;;3.23;;
18435;SDS011;9346;52.006;4.720;2024-02-16T03:21:57;3.33;;;2.50;;
18435;SDS011;9346;52.006;4.720;2024-02-16T03:24:24;7.60;;;3.37;;
18435;SDS011;9346;52.006;4.720;2024-02-16T03:26:50;3.23;;;2.83;;
18435;SDS011;9346;52.006;4.720;2024-02-16T03:29:17;3.87;;;2.83;;
18435;SDS011;9346;52.006;4.720;2024-02-16T03:31:46;6.50;;;2.90;;
18435;SDS011;9346;52.006;4.720;2024-02-16T03:34:12;3.20;;;2.30;;
18435;SDS011;9346;52.006;4.720;2024-02-16T03:36:39;2.87;;;2.50;;
18435;SDS011;9346;52.006;4.720;2024-02-16T03:39:05;2.97;;;2.67;;
18435;SDS011;9346;52.006;4.720;2024-02-16T03:41:33;5.97;;;2.90;;
18435;SDS011;9346;52.006;4.720;2024-02-16T03:44:00;3.50;;;2.57;;
18435;SDS011;9346;52.006;4.720;2024-02-16T03:46:27;4.40;;;2.90;;
18435;SDS011;9346;52.006;4.720;2024-02-16T03:48:55;3.63;;;2.77;;
18435;SDS011;9346;52.006;4.720;2024-02-16T03:51:22;4.83;;;2.80;;
18435;SDS011;9346;52.006;4.720;2024-02-16T03:53:48;3.50;;;2.53;;
18435;SDS011;9346;52.006;4.720;2024-02-16T03:56:18;3.57;;;2.80;;
18435;SDS011;9346;52.006;4.720;2024-02-16T03:58:46;4.17;;;2.80;;
18435;SDS011;9346;52.006;4.720;2024-02-16T04:01:12;3.67;;;3.07;;
18435;SDS011;9346;52.006;4.720;2024-02-16T04:03:39;5.27;;;3.20;;
18435;SDS011;9346;52.006;4.720;2024-02-16T04:06:08;4.10;;;2.97;;
18435;SDS011;9346;52.006;4.720;2024-02-16T04:08:34;3.23;;;2.80;;
18435;SDS011;9346;52.006;4.720;2024-02-16T04:11:01;3.97;;;2.80;;
18435;SDS011;9346;52.006;4.720;2024-02-16T04:13:28;7.23;;;2.70;;
18435;SDS011;9346;52.006;4.720;2024-02-16T04:15:55;4.53;;;2.73;;
18435;SDS011;9346;52.006;4.720;2024-02-16T04:18:21;3.90;;;2.77;;
18435;SDS011;9346;52.006;4.720;2024-02-16T04:20:48;3.73;;;2.90;;
18435;SDS011;9346;52.006;4.720;2024-02-16T04:23:16;4.13;;;2.97;;
18435;SDS011;9346;52.006;4.720;2024-02-16T04:25:43;4.80;;;3.00;;
18435;SDS011;9346;52.006;4.720;2024-02-16T04:28:10;3.97;;;2.83;;
18435;SDS011;9346;52.006;4.720;2024-02-16T04:30:37;5.10;;;3.10;;
18435;SDS011;9346;52.006;4.720;2024-02-16T04:33:04;8.63;;;3.57;;
18435;SDS011;9346;52.006;4.720;2024-02-16T04:35:31;3.20;;;2.90;;
18435;SDS011;9346;52.006;4.720;2024-02-16T04:37:58;3.70;;;2.37;;
18435;SDS011;9346;52.006;4.720;2024-02-16T04:40:27;5.17;;;3.20;;
18435;SDS011;9346;52.006;4.720;2024-02-16T04:42:53;6.83;;;3.27;;
18435;SDS011;9346;52.006;4.720;2024-02-16T04:45:20;4.57;;;2.73;;
18435;SDS011;9346;52.006;4.720;2024-02-16T04:47:47;6.33;;;3.37;;
18435;SDS011;9346;52.006;4.720;2024-02-16T04:50:14;4.40;;;2.97;;
18435;SDS011;9346;52.006;4.720;2024-02-16T04:52:40;4.40;;;2.70;;
18435;SDS011;9346;52.006;4.720;2024-02-16T04:55:09;5.67;;;3.17;;
18435;SDS011;9346;52.006;4.720;2024-02-16T04:57:37;4.20;;;2.83;;
18435;SDS011;9346;52.006;4.720;2024-02-16T05:00:03;6.33;;;3.00;;
18435;SDS011;9346;52.006;4.720;2024-02-16T05:02:30;3.23;;;2.93;;
18435;SDS011;9346;52.006;4.720;2024-02-16T05:04:57;6.30;;;3.17;;
18435;SDS011;9346;52.006;4.720;2024-02-16T05:07:23;5.10;;;2.87;;
18435;SDS011;9346;52.006;4.720;2024-02-16T05:09:50;6.97;;;3.77;;
18435;SDS011;9346;52.006;4.720;2024-02-16T05:12:21;7.90;;;3.23;;
18435;SDS011;9346;52.006;4.720;2024-02-16T05:14:50;7.67;;;3.13;;
18435;SDS011;9346;52.006;4.720;2024-02-16T05:17:16;4.73;;;3.10;;
18435;SDS011;9346;52.006;4.720;2024-02-16T05:19:42;4.63;;;3.17;;
18435;SDS011;9346;52.006;4.720;2024-02-16T05:22:09;4.20;;;3.10;;
18435;SDS011;9346;52.006;4.720;2024-02-16T05:24:36;5.93;;;2.90;;
18435;SDS011;9346;52.006;4.720;2024-02-16T05:27:03;6.80;;;3.40;;
18435;SDS011;9346;52.006;4.720;2024-02-16T05:29:30;7.80;;;3.37;;
18435;SDS011;9346;52.006;4.720;2024-02-16T05:31:58;5.50;;;3.20;;
18435;SDS011;9346;52.006;4.720;2024-02-16T05:34:24;8.50;;;3.27;;
18435;SDS011;9346;52.006;4.720;2024-02-16T05:36:51;4.60;;;3.03;;
18435;SDS011;9346;52.006;4.720;2024-02-16T05:39:18;5.10;;;3.40;;
18435;SDS011;9346;52.006;4.720;2024-02-16T05:41:52;5.13;;;3.57;;
18435;SDS011;9346;52.006;4.720;2024-02-16T05:44:19;3.57;;;2.77;;
18435;SDS011;9346;52.006;4.720;2024-02-16T05:46:46;5.97;;;3.50;;
18435;SDS011;9346;52.006;4.720;2024-02-16T05:49:14;5.37;;;3.10;;
18435;SDS011;9346;52.006;4.720;2024-02-16T05:51:41;5.03;;;3.30;;
18435;SDS011;9346;52.006;4.720;2024-02-16T05:54:25;7.70;;;3.73;;
18435;SDS011;9346;52.006;4.720;2024-02-16T05:56:52;5.37;;;3.43;;
18435;SDS011;9346;52.006;4.720;2024-02-16T05:59:19;4.27;;;3.00;;
18435;SDS011;9346;52.006;4.720;2024-02-16T06:01:47;5.33;;;3.37;;
18435;SDS011;9346;52.006;4.720;2024-02-16T06:04:15;5.07;;;3.03;;
18435;SDS011;9346;52.006;4.720;2024-02-16T06:06:42;5.57;;;3.77;;
18435;SDS011;9346;52.006;4.720;2024-02-16T06:09:08;4.70;;;2.53;;
18435;SDS011;9346;52.006;4.720;2024-02-16T06:11:36;4.07;;;2.93;;
18435;SDS011;9346;52.006;4.720;2024-02-16T06:14:03;5.93;;;3.30;;
18435;SDS011;9346;52.006;4.720;2024-02-16T06:16:29;6.20;;;2.50;;
18435;SDS011;9346;52.006;4.720;2024-02-16T06:18:56;4.20;;;3.00;;
18435;SDS011;9346;52.006;4.720;2024-02-16T06:21:24;7.90;;;3.00;;
18435;SDS011;9346;52.006;4.720;2024-02-16T06:23:51;5.07;;;2.83;;
18435;SDS011;9346;52.006;4.720;2024-02-16T06:26:18;5.40;;;3.37;;
18435;SDS011;9346;52.006;4.720;2024-02-16T06:28:45;4.03;;;2.73;;
18435;SDS011;9346;52.006;4.720;2024-02-16T06:31:12;4.30;;;2.43;;
18435;SDS011;9346;52.006;4.720;2024-02-16T06:33:39;6.67;;;3.80;;
18435;SDS011;9346;52.006;4.720;2024-02-16T06:36:06;6.53;;;4.23;;
18435;SDS011;9346;52.006;4.720;2024-02-16T06:38:36;7.63;;;3.57;;
18435;SDS011;9346;52.006;4.720;2024-02-16T06:41:03;6.90;;;3.70;;
18435;SDS011;9346;52.006;4.720;2024-02-16T06:43:30;4.80;;;3.40;;
18435;SDS011;9346;52.006;4.720;2024-02-16T06:45:57;5.63;;;3.20;;
18435;SDS011;9346;52.006;4.720;2024-02-16T06:48:23;4.23;;;2.73;;
18435;SDS011;9346;52.006;4.720;2024-02-16T06:50:50;3.47;;;2.67;;
18435;SDS011;9346;52.006;4.720;2024-02-16T06:53:17;5.23;;;3.10;;
18435;SDS011;9346;52.006;4.720;2024-02-16T06:55:45;4.53;;;2.73;;
18435;SDS011;9346;52.006;4.720;2024-02-16T06:58:12;3.93;;;2.60;;
18435;SDS011;9346;52.006;4.720;2024-02-16T07:00:38;8.40;;;3.17;;
18435;SDS011;9346;52.006;4.720;2024-02-16T07:03:07;4.10;;;2.87;;
18435;SDS011;9346;52.006;4.720;2024-02-16T07:05:34;4.07;;;2.90;;
18435;SDS011;9346;52.006;4.720;2024-02-16T07:08:01;5.10;;;3.50;;
18435;SDS011;9346;52.006;4.720;2024-02-16T07:10:29;4.30;;;3.33;;
18435;SDS011;9346;52.006;4.720;2024-02-16T07:12:57;4.30;;;3.00;;
18435;SDS011;9346;52.006;4.720;2024-02-16T07:15:28;8.57;;;3.53;;
18435;SDS011;9346;52.006;4.720;2024-02-16T07:17:55;6.77;;;3.53;;
18435;SDS011;9346;52.006;4.720;2024-02-16T07:20:22;5.87;;;3.23;;
18435;SDS011;9346;52.006;4.720;2024-02-16T07:22:49;4.70;;;3.20;;
18435;SDS011;9346;52.006;4.720;2024-02-16T07:25:16;7.67;;;3.60;;
18435;SDS011;9346;52.006;4.720;2024-02-16T07:27:44;5.00;;;3.60;;
18435;SDS011;9346;52.006;4.720;2024-02-16T07:30:12;4.63;;;3.00;;
18435;SDS011;9346;52.006;4.720;2024-02-16T07:32:40;6.00;;;3.50;;
18435;SDS011;9346;52.006;4.720;2024-02-16T07:35:08;4.73;;;3.07;;
18435;SDS011;9346;52.006;4.720;2024-02-16T07:37:38;7.10;;;4.07;;
18435;SDS011;9346;52.006;4.720;2024-02-16T07:40:07;4.47;;;3.63;;
18435;SDS011;9346;52.006;4.720;2024-02-16T07:42:37;10.80;;;4.10;;
18435;SDS011;9346;52.006;4.720;2024-02-16T07:45:04;7.93;;;3.43;;
18435;SDS011;9346;52.006;4.720;2024-02-16T07:47:33;4.70;;;3.37;;
18435;SDS011;9346;52.006;4.720;2024-02-16T07:50:00;5.40;;;3.33;;
18435;SDS011;9346;52.006;4.720;2024-02-16T07:52:26;7.33;;;4.23;;
18435;SDS011;9346;52.006;4.720;2024-02-16T07:54:53;4.03;;;3.23;;
18435;SDS011;9346;52.006;4.720;2024-02-16T07:57:19;9.83;;;4.90;;
18435;SDS011;9346;52.006;4.720;2024-02-16T07:59:47;7.10;;;3.57;;
18435;SDS011;9346;52.006;4.720;2024-02-16T08:02:14;5.00;;;3.50;;
18435;SDS011;9346;52.006;4.720;2024-02-16T08:04:44;5.23;;;3.30;;
18435;SDS011;9346;52.006;4.720;2024-02-16T08:07:13;9.73;;;3.47;;
18435;SDS011;9346;52.006;4.720;2024-02-16T08:09:43;14.13;;;3.97;;
18435;SDS011;9346;52.006;4.720;2024-02-16T08:12:10;5.43;;;3.50;;
18435;SDS011;9346;52.006;4.720;2024-02-16T08:14:37;6.03;;;3.67;;
18435;SDS011;9346;52.006;4.720;2024-02-16T08:17:05;5.77;;;4.27;;
18435;SDS011;9346;52.006;4.720;2024-02-16T08:19:33;4.63;;;3.47;;
18435;SDS011;9346;52.006;4.720;2024-02-16T08:22:03;5.90;;;3.47;;
18435;SDS011;9346;52.006;4.720;2024-02-16T08:24:33;4.67;;;3.37;;
18435;SDS011;9346;52.006;4.720;2024-02-16T08:27:00;4.83;;;3.07;;
18435;SDS011;9346;52.006;4.720;2024-02-16T08:29:27;8.00;;;3.50;;
18435;SDS011;9346;52.006;4.720;2024-02-16T08:31:55;3.30;;;2.70;;
18435;SDS011;9346;52.006;4.720;2024-02-16T08:34:22;8.47;;;3.93;;
18435;SDS011;9346;52.006;4.720;2024-02-16T08:36:51;5.50;;;3.53;;
18435;SDS011;9346;52.006;4.720;2024-02-16T08:39:20;4.13;;;2.93;;
18435;SDS011;9346;52.006;4.720;2024-02-16T08:41:50;5.17;;;3.17;;
18435;SDS011;9346;52.006;4.720;2024-02-16T08:44:16;7.00;;;3.67;;
18435;SDS011;9346;52.006;4.720;2024-02-16T08:46:44;8.77;;;3.43;;
18435;SDS011;9346;52.006;4.720;2024-02-16T08:49:11;5.93;;;3.43;;
18435;SDS011;9346;52.006;4.720;2024-02-16T08:51:38;6.60;;;3.60;;
18435;SDS011;9346;52.006;4.720;2024-02-16T08:54:06;6.10;;;3.50;;
18435;SDS011;9346;52.006;4.720;2024-02-16T08:56:34;4.13;;;3.23;;
18435;SDS011;9346;52.006;4.720;2024-02-16T08:59:04;12.00;;;3.80;;
18435;SDS011;9346;52.006;4.720;2024-02-16T09:01:33;4.83;;;3.20;;
18435;SDS011;9346;52.006;4.720;2024-02-16T09:04:00;6.07;;;3.60;;
18435;SDS011;9346;52.006;4.720;2024-02-16T09:06:28;5.50;;;3.20;;
18435;SDS011;9346;52.006;4.720;2024-02-16T09:08:56;5.13;;;3.67;;
18435;SDS011;9346;52.006;4.720;2024-02-16T09:11:23;7.07;;;3.63;;
18435;SDS011;9346;52.006;4.720;2024-02-16T09:13:52;8.17;;;3.70;;
18435;SDS011;9346;52.006;4.720;2024-02-16T09:16:19;6.53;;;4.20;;
18435;SDS011;9346;52.006;4.720;2024-02-16T09:18:47;10.13;;;5.63;;
18435;SDS011;9346;52.006;4.720;2024-02-16T09:21:14;9.60;;;4.87;;
18435;SDS011;9346;52.006;4.720;2024-02-16T09:23:41;11.80;;;4.90;;
18435;SDS011;9346;52.006;4.720;2024-02-16T09:26:08;5.57;;;3.77;;
18435;SDS011;9346;52.006;4.720;2024-02-16T09:28:38;7.10;;;4.13;;
18435;SDS011;9346;52.006;4.720;2024-02-16T09:31:07;5.00;;;3.73;;
18435;SDS011;9346;52.006;4.720;2024-02-16T09:33:33;7.37;;;4.63;;
18435;SDS011;9346;52.006;4.720;2024-02-16T09:36:00;4.87;;;3.93;;
18435;SDS011;9346;52.006;4.720;2024-02-16T09:38:29;5.43;;;4.03;;
18435;SDS011;9346;52.006;4.720;2024-02-16T09:40:56;12.87;;;4.97;;
18435;SDS011;9346;52.006;4.720;2024-02-16T09:43:27;8.87;;;5.20;;
18435;SDS011;9346;52.006;4.720;2024-02-16T09:45:54;5.73;;;5.03;;
18435;SDS011;9346;52.006;4.720;2024-02-16T09:48:25;7.20;;;4.60;;
18435;SDS011;9346;52.006;4.720;2024-02-16T09:50:53;9.93;;;4.57;;
18435;SDS011;9346;52.006;4.720;2024-02-16T09:53:21;7.17;;;4.93;;
18435;SDS011;9346;52.006;4.720;2024-02-16T09:55:51;13.37;;;6.60;;
18435;SDS011;9346;52.006;4.720;2024-02-16T09:58:18;11.47;;;5.40;;
18435;SDS011;9346;52.006;4.720;2024-02-16T10:00:51;12.13;;;6.70;;
18435;SDS011;9346;52.006;4.720;2024-02-16T10:03:25;9.33;;;5.23;;
18435;SDS011;9346;52.006;4.720;2024-02-16T10:05:53;9.53;;;5.60;;
18435;SDS011;9346;52.006;4.720;2024-02-16T10:08:31;8.20;;;5.33;;
18435;SDS011;9346;52.006;4.720;2024-02-16T10:11:01;8.87;;;5.43;;
18435;SDS011;9346;52.006;4.720;2024-02-16T10:13:29;10.77;;;5.77;;
18435;SDS011;9346;52.006;4.720;2024-02-16T10:16:06;10.07;;;6.23;;
18435;SDS011;9346;52.006;4.720;2024-02-16T10:18:35;9.43;;;6.23;;
18435;SDS011;9346;52.006;4.720;2024-02-16T10:21:03;11.07;;;5.90;;
18435;SDS011;9346;52.006;4.720;2024-02-16T10:23:32;11.90;;;6.17;;
18435;SDS011;9346;52.006;4.720;2024-02-16T10:25:59;16.77;;;7.07;;
18435;SDS011;9346;52.006;4.720;2024-02-16T10:28:27;14.43;;;6.07;;
18435;SDS011;9346;52.006;4.720;2024-02-16T10:30:57;7.87;;;5.23;;
18435;SDS011;9346;52.006;4.720;2024-02-16T10:33:26;9.50;;;6.50;;
18435;SDS011;9346;52.006;4.720;2024-02-16T10:35:57;11.43;;;5.60;;
18435;SDS011;9346;52.006;4.720;2024-02-16T10:38:25;8.83;;;5.40;;
18435;SDS011;9346;52.006;4.720;2024-02-16T10:40:52;10.23;;;5.60;;
18435;SDS011;9346;52.006;4.720;2024-02-16T10:43:20;10.43;;;5.63;;
18435;SDS011;9346;52.006;4.720;2024-02-16T10:45:48;9.93;;;6.30;;
18435;SDS011;9346;52.006;4.720;2024-02-16T10:48:18;10.10;;;5.33;;
18435;SDS011;9346;52.006;4.720;2024-02-16T10:50:45;7.20;;;5.33;;
18435;SDS011;9346;52.006;4.720;2024-02-16T10:53:18;8.40;;;4.87;;
18435;SDS011;9346;52.006;4.720;2024-02-16T10:55:49;7.13;;;5.00;;
18435;SDS011;9346;52.006;4.720;2024-02-16T10:58:16;10.10;;;5.23;;
18435;SDS011;9346;52.006;4.720;2024-02-16T11:00:53;8.20;;;4.70;;
18435;SDS011;9346;52.006;4.720;2024-02-16T11:03:23;7.43;;;4.77;;
18435;SDS011;9346;52.006;4.720;2024-02-16T11:05:51;8.60;;;5.30;;
18435;SDS011;9346;52.006;4.720;2024-02-16T11:08:21;6.90;;;4.70;;
18435;SDS011;9346;52.006;4.720;2024-02-16T11:10:55;8.53;;;5.20;;
18435;SDS011;9346;52.006;4.720;2024-02-16T11:13:22;6.90;;;4.93;;
18435;SDS011;9346;52.006;4.720;2024-02-16T11:15:58;6.27;;;5.00;;
18435;SDS011;9346;52.006;4.720;2024-02-16T11:18:27;7.97;;;5.10;;
18435;SDS011;9346;52.006;4.720;2024-02-16T11:20:54;11.70;;;6.13;;
18435;SDS011;9346;52.006;4.720;2024-02-16T11:23:26;14.97;;;6.37;;
18435;SDS011;9346;52.006;4.720;2024-02-16T11:25:54;11.77;;;7.17;;
18435;SDS011;9346;52.006;4.720;2024-02-16T11:28:27;12.30;;;6.97;;
18435;SDS011;9346;52.006;4.720;2024-02-16T11:30:54;10.67;;;6.00;;
18435;SDS011;9346;52.006;4.720;2024-02-16T11:33:21;10.83;;;6.90;;
18435;SDS011;9346;52.006;4.720;2024-02-16T11:35:54;13.33;;;6.47;;
18435;SDS011;9346;52.006;4.720;2024-02-16T11:38:22;11.00;;;5.27;;
18435;SDS011;9346;52.006;4.720;2024-02-16T11:40:55;7.67;;;4.30;;
18435;SDS011;9346;52.006;4.720;2024-02-16T11:43:22;6.43;;;4.20;;
18435;SDS011;9346;52.006;4.720;2024-02-16T11:45:50;6.37;;;4.50;;
18435;SDS011;9346;52.006;4.720;2024-02-16T11:48:20;5.10;;;3.43;;
18435;SDS011;9346;52.006;4.720;2024-02-16T11:50:48;4.60;;;3.03;;
18435;SDS011;9346;52.006;4.720;2024-02-16T11:53:16;5.27;;;3.83;;
18435;SDS011;9346;52.006;4.720;2024-02-16T11:55:48;5.63;;;3.07;;
18435;SDS011;9346;52.006;4.720;2024-02-16T11:58:18;4.70;;;3.07;;
18435;SDS011;9346;52.006;4.720;2024-02-16T12:00:45;5.27;;;3.20;;
18435;SDS011;9346;52.006;4.720;2024-02-16T12:03:17;7.30;;;3.63;;
18435;SDS011;9346;52.006;4.720;2024-02-16T12:05:49;6.77;;;3.43;;
18435;SDS011;9346;52.006;4.720;2024-02-16T12:08:16;4.43;;;3.03;;
18435;SDS011;9346;52.006;4.720;2024-02-16T12:10:44;4.27;;;3.03;;
18435;SDS011;9346;52.006;4.720;2024-02-16T12:13:11;3.73;;;2.90;;
18435;SDS011;9346;52.006;4.720;2024-02-16T12:15:40;4.60;;;2.60;;
18435;SDS011;9346;52.006;4.720;2024-02-16T12:18:07;3.93;;;3.17;;
18435;SDS011;9346;52.006;4.720;2024-02-16T12:20:34;5.07;;;3.47;;
18435;SDS011;9346;52.006;4.720;2024-02-16T12:23:10;5.13;;;3.60;;
18435;SDS011;9346;52.006;4.720;2024-02-16T12:25:37;6.23;;;3.53;;
18435;SDS011;9346;52.006;4.720;2024-02-16T12:28:04;6.60;;;3.10;;
18435;SDS011;9346;52.006;4.720;2024-02-16T12:30:32;3.40;;;2.60;;
18435;SDS011;9346;52.006;4.720;2024-02-16T12:33:01;6.50;;;3.33;;
18435;SDS011;9346;52.006;4.720;2024-02-16T12:35:28;6.77;;;3.33;;
18435;SDS011;9346;52.006;4.720;2024-02-16T12:37:54;2.97;;;2.50;;
18435;SDS011;9346;52.006;4.720;2024-02-16T12:40:21;3.83;;;2.83;;
18435;SDS011;9346;52.006;4.720;2024-02-16T12:42:48;2.90;;;2.43;;
18435;SDS011;9346;52.006;4.720;2024-02-16T12:45:15;3.63;;;2.60;;
18435;SDS011;9346;52.006;4.720;2024-02-16T12:47:42;4.47;;;3.10;;
18435;SDS011;9346;52.006;4.720;2024-02-16T12:50:12;4.87;;;2.67;;
18435;SDS011;9346;52.006;4.720;2024-02-16T12:52:39;3.50;;;2.70;;
18435;SDS011;9346;52.006;4.720;2024-02-16T12:55:05;3.53;;;2.20;;
18435;SDS011;9346;52.006;4.720;2024-02-16T12:57:35;4.27;;;2.70;;
18435;SDS011;9346;52.006;4.720;2024-02-16T13:00:01;4.80;;;2.90;;
18435;SDS011;9346;52.006;4.720;2024-02-16T13:02:28;7.37;;;2.97;;
18435;SDS011;9346;52.006;4.720;2024-02-16T13:04:55;3.53;;;3.10;;
18435;SDS011;9346;52.006;4.720;2024-02-16T13:07:23;6.17;;;3.53;;
18435;SDS011;9346;52.006;4.720;2024-02-16T13:09:51;5.27;;;3.80;;
18435;SDS011;9346;52.006;4.720;2024-02-16T13:12:18;8.07;;;4.40;;
18435;SDS011;9346;52.006;4.720;2024-02-16T13:14:48;6.23;;;3.90;;
18435;SDS011;9346;52.006;4.720;2024-02-16T13:17:15;4.97;;;4.00;;
18435;SDS011;9346;52.006;4.720;2024-02-16T13:19:43;6.60;;;4.73;;
18435;SDS011;9346;52.006;4.720;2024-02-16T13:22:10;5.10;;;3.97;;
18435;SDS011;9346;52.006;4.720;2024-02-16T13:24:38;8.17;;;4.90;;
18435;SDS011;9346;52.006;4.720;2024-02-16T13:27:07;9.63;;;4.13;;
18435;SDS011;9346;52.006;4.720;2024-02-16T13:29:34;5.00;;;4.07;;
18435;SDS011;9346;52.006;4.720;2024-02-16T13:32:01;5.77;;;4.33;;
18435;SDS011;9346;52.006;4.720;2024-02-16T13:34:29;8.13;;;4.97;;
18435;SDS011;9346;52.006;4.720;2024-02-16T13:36:55;4.97;;;3.53;;
18435;SDS011;9346;52.006;4.720;2024-02-16T13:39:23;6.13;;;4.10;;
18435;SDS011;9346;52.006;4.720;2024-02-16T13:41:53;5.03;;;3.33;;
18435;SDS011;9346;52.006;4.720;2024-02-16T13:44:22;5.30;;;3.77;;
18435;SDS011;9346;52.006;4.720;2024-02-16T13:46:49;5.23;;;3.90;;
18435;SDS011;9346;52.006;4.720;2024-02-16T13:49:16;8.50;;;3.97;;
18435;SDS011;9346;52.006;4.720;2024-02-16T13:51:45;11.93;;;4.83;;
18435;SDS011;9346;52.006;4.720;2024-02-16T13:54:12;4.97;;;3.87;;
18435;SDS011;9346;52.006;4.720;2024-02-16T13:56:42;4.70;;;3.93;;
18435;SDS011;9346;52.006;4.720;2024-02-16T13:59:11;8.87;;;4.97;;
18435;SDS011;9346;52.006;4.720;2024-02-16T14:01:38;8.93;;;5.23;;
18435;SDS011;9346;52.006;4.720;2024-02-16T14:04:05;6.17;;;4.77;;
18435;SDS011;9346;52.006;4.720;2024-02-16T14:06:33;6.17;;;4.13;;
18435;SDS011;9346;52.006;4.720;2024-02-16T14:09:00;6.33;;;4.27;;
18435;SDS011;9346;52.006;4.720;2024-02-16T14:11:33;4.83;;;3.47;;
18435;SDS011;9346;52.006;4.720;2024-02-16T14:14:00;6.83;;;3.93;;
18435;SDS011;9346;52.006;4.720;2024-02-16T14:16:29;6.50;;;4.87;;
18435;SDS011;9346;52.006;4.720;2024-02-16T14:18:56;11.13;;;5.13;;
18435;SDS011;9346;52.006;4.720;2024-02-16T14:21:23;5.10;;;4.23;;
18435;SDS011;9346;52.006;4.720;2024-02-16T14:23:50;6.80;;;4.60;;
18435;SDS011;9346;52.006;4.720;2024-02-16T14:26:17;6.47;;;4.23;;
18435;SDS011;9346;52.006;4.720;2024-02-16T14:28:44;6.23;;;4.70;;
18435;SDS011;9346;52.006;4.720;2024-02-16T14:31:11;5.97;;;4.23;;
18435;SDS011;9346;52.006;4.720;2024-02-16T14:33:43;5.03;;;4.10;;
18435;SDS011;9346;52.006;4.720;2024-02-16T14:36:11;7.17;;;4.07;;
18435;SDS011;9346;52.006;4.720;2024-02-16T14:38:37;8.50;;;4.73;;
18435;SDS011;9346;52.006;4.720;2024-02-16T14:41:04;7.67;;;5.27;;
18435;SDS011;9346;52.006;4.720;2024-02-16T14:43:31;7.13;;;4.87;;
18435;SDS011;9346;52.006;4.720;2024-02-16T14:45:58;6.43;;;4.57;;
18435;SDS011;9346;52.006;4.720;2024-02-16T14:48:25;7.33;;;4.10;;
18435;SDS011;9346;52.006;4.720;2024-02-16T14:50:55;7.03;;;4.80;;
18435;SDS011;9346;52.006;4.720;2024-02-16T14:53:22;5.73;;;4.67;;
18435;SDS011;9346;52.006;4.720;2024-02-16T14:55:49;11.73;;;5.10;;
18435;SDS011;9346;52.006;4.720;2024-02-16T14:58:16;5.77;;;4.40;;
18435;SDS011;9346;52.006;4.720;2024-02-16T15:00:43;7.30;;;5.20;;
18435;SDS011;9346;52.006;4.720;2024-02-16T15:03:11;8.87;;;4.87;;